Time;durP1;ratioP1;P1;durP2;ratioP2;P2;SDS_P1;SDS_P2;PMS_P1;PMS_P2;Temp;Humidity;BMP_temperature;BMP_pressure;BME280_temperature;BME280_humidity;BME280_pressure;Samples;Min_cycle;Max_cycle;Signal;HPM_P1;HPM_P2
2024/01/27 00:00:38;;;;;;;17.92;4.70;;;;;;;-144.05;73.62;57063.34;5095537;28;20031;-81
2024/01/27 00:03:05;;;;;;;23.33;5.13;;;;;;;-144.05;74.11;57073.97;5095219;28;20073;-78
2024/01/27 00:05:31;;;;;;;18.40;4.63;;;;;;;-144.05;73.94;57044.25;5092827;28;20072;-79
2024/01/27 00:07:57;;;;;;;19.10;4.30;;;;;;;-144.05;73.92;57061.22;5093994;28;20399;-78
2024/01/27 00:10:23;;;;;;;20.42;5.07;;;;;;;-144.05;74.31;57046.38;5094019;28;20024;-78
2024/01/27 00:12:50;;;;;;;19.30;4.63;;;;;;;-144.05;74.70;57048.50;5102100;28;20106;-76
2024/01/27 00:15:16;;;;;;;16.02;4.40;;;;;;;-144.05;74.87;57031.50;5100310;28;20111;-77
2024/01/27 00:17:42;;;;;;;16.65;4.85;;;;;;;-144.05;74.32;57061.22;5093718;28;20024;-79
2024/01/27 00:20:09;;;;;;;28.13;5.68;;;;;;;-144.05;73.82;57048.50;5094591;28;20077;-76
2024/01/27 00:22:35;;;;;;;20.65;4.75;;;;;;;-144.05;73.79;57046.38;5093682;28;20032;-76
2024/01/27 00:25:01;;;;;;;15.20;4.75;;;;;;;-144.05;74.06;57042.13;5102611;28;20108;-76
2024/01/27 00:27:27;;;;;;;32.13;4.85;;;;;;;-144.05;74.46;57042.13;5109228;27;20024;-75
2024/01/27 00:29:54;;;;;;;21.50;4.72;;;;;;;-144.05;73.84;57048.50;5104250;28;20035;-76
2024/01/27 00:32:20;;;;;;;22.10;4.63;;;;;;;-144.05;74.34;57046.38;5120425;28;20028;-75
2024/01/27 00:34:46;;;;;;;25.55;5.35;;;;;;;-144.05;74.12;57029.38;5115970;28;20032;-77
2024/01/27 00:37:12;;;;;;;23.15;5.32;;;;;;;-144.05;73.74;57035.75;5111119;28;20047;-76
2024/01/27 00:39:39;;;;;;;17.48;4.35;;;;;;;-144.05;73.89;57040.00;5101879;28;20039;-78
2024/01/27 00:42:05;;;;;;;25.70;6.03;;;;;;;-144.05;74.39;57056.97;5095344;28;20048;-75
2024/01/27 00:44:31;;;;;;;22.48;4.95;;;;;;;-144.05;73.69;57040.00;5095991;28;20426;-76
2024/01/27 00:46:57;;;;;;;22.70;4.85;;;;;;;-144.05;73.77;57054.88;5095870;28;20077;-77
2024/01/27 00:49:24;;;;;;;25.55;4.50;;;;;;;-144.05;73.63;57061.22;5103124;28;20353;-76
2024/01/27 00:51:50;;;;;;;19.85;4.70;;;;;;;-144.05;73.84;57040.00;5110042;28;20023;-77
2024/01/27 00:54:16;;;;;;;18.33;4.72;;;;;;;-144.05;74.00;57054.88;5103069;28;20032;-78
2024/01/27 00:56:43;;;;;;;15.35;4.40;;;;;;;-144.05;73.39;57061.22;5118871;28;20043;-78
2024/01/27 00:59:09;;;;;;;14.40;4.15;;;;;;;-144.05;73.60;57029.38;5108975;28;20101;-76
2024/01/27 01:01:35;;;;;;;17.90;4.88;;;;;;;-144.05;74.09;57090.97;5094875;28;20020;-77
2024/01/27 01:04:02;;;;;;;14.00;4.57;;;;;;;-144.05;74.07;57056.97;5095186;28;20139;-77
2024/01/27 01:06:28;;;;;;;19.52;4.13;;;;;;;-144.05;74.03;57052.75;5095685;28;20414;-78
2024/01/27 01:08:54;;;;;;;17.77;4.40;;;;;;;-144.05;73.74;57052.75;5095526;28;20546;-78
2024/01/27 01:11:21;;;;;;;18.55;3.85;;;;;;;-144.05;73.84;57044.25;5095701;28;20028;-78
2024/01/27 01:13:47;;;;;;;23.30;5.03;;;;;;;-144.05;73.67;57029.38;5096735;28;20145;-77
2024/01/27 01:16:13;;;;;;;17.35;4.63;;;;;;;-144.05;73.69;57056.97;5097295;28;20449;-76
2024/01/27 01:18:40;;;;;;;20.50;5.25;;;;;;;-144.05;74.32;57031.50;5095890;28;20039;-76
2024/01/27 01:21:06;;;;;;;22.00;5.57;;;2.90;99.90;;;-144.05;74.45;57046.38;5095011;28;20024;-77
2024/01/27 01:23:32;;;;;;;18.98;4.85;;;;;;;-144.05;74.58;57061.22;5095219;28;20035;-77
2024/01/27 01:25:59;;;;;;;22.75;4.47;;;;;;;-144.05;74.08;57052.75;5101289;28;20538;-77
2024/01/27 01:28:25;;;;;;;21.67;5.70;;;;;;;-144.05;74.27;57052.75;5094417;28;20096;-79
2024/01/27 01:30:51;;;;;;;17.65;5.22;;;;;;;-144.05;74.08;57069.72;5093217;28;20020;-77
2024/01/27 01:33:17;;;;;;;18.38;4.50;;;;;;;-144.05;73.17;57056.97;5093678;28;20028;-76
2024/01/27 01:35:44;;;;;;;17.45;4.60;;;;;;;-144.05;73.39;57044.25;5093464;28;20028;-77
2024/01/27 01:38:10;;;;;;;23.02;4.97;;;;;;;-144.05;73.75;57056.97;5100315;28;20054;-79
2024/01/27 01:40:36;;;;;;;15.30;4.13;;;;;;;-144.05;73.49;57035.75;5100457;28;20020;-79
2024/01/27 01:43:04;;;;;;;22.20;4.63;;;;;;;-144.05;73.72;57044.25;5094395;28;20028;-76
2024/01/27 01:45:30;;;;;;;21.13;5.03;;;;;;;-144.05;73.53;57069.72;5095298;28;20426;-76
2024/01/27 01:47:56;;;;;;;18.75;4.35;;;;;;;-144.05;73.54;57048.50;5094877;28;20032;-75
2024/01/27 01:50:22;;;;;;;21.42;4.40;;;;;;;-144.05;74.20;57052.75;5093001;28;20333;-78
2024/01/27 01:52:52;;;;;;;18.55;5.15;;;2.90;99.90;;;-144.05;74.19;57061.22;5094697;28;20020;-76
2024/01/27 01:55:19;;;;;;;15.45;3.85;;;;;;;-144.05;73.32;57052.75;5094092;28;20047;-75
2024/01/27 01:57:46;;;;;;;22.40;4.55;;;;;;;-144.05;74.04;57067.59;5096707;28;20052;-77
2024/01/27 02:00:13;;;;;;;14.73;4.07;;;;;;;-144.05;73.69;57035.75;5108891;28;20020;-75
2024/01/27 02:02:39;;;;;;;18.02;4.35;;;;;;;-144.05;73.41;57044.25;5094072;28;20058;-76
2024/01/27 02:05:08;;;;;;;20.00;4.70;;;;;;;-144.05;73.88;57052.75;5093234;28;20032;-76
2024/01/27 02:07:35;;;;;;;20.13;5.05;;;;;;;-144.05;74.41;57016.63;5093621;28;20512;-76
2024/01/27 02:10:02;;;;;;;22.58;4.80;;;;;;;-144.05;73.45;57035.75;5093222;28;20027;-77
2024/01/27 02:12:28;;;;;;;26.80;8.00;;;;;;;-144.05;73.60;57063.34;5094900;28;20024;-74
2024/01/27 02:14:54;;;;;;;16.65;4.75;;;;;;;-144.05;73.67;57063.34;5093182;28;20023;-77
2024/01/27 02:17:21;;;;;;;16.27;5.40;;;;;;;-144.05;73.58;57040.00;5093399;28;20464;-78
2024/01/27 02:19:47;;;;;;;22.48;6.28;;;;;;;-144.05;74.14;57052.75;5094066;28;20496;-78
2024/01/27 02:22:13;;;;;;;16.60;5.32;;;;;;;-144.05;74.75;57052.75;5096711;28;20036;-79
2024/01/27 02:24:39;;;;;;;25.23;5.60;;;;;;;-144.05;74.44;57050.63;5098490;28;20020;-76
2024/01/27 02:27:05;;;;;;;22.38;5.30;;;;;;;-144.05;74.88;57033.63;5094346;28;20102;-77
2024/01/27 02:29:32;;;;;;;17.65;4.82;;;;;;;-144.05;74.21;57006.00;5093471;28;20028;-79
2024/01/27 02:31:58;;;;;;;18.13;4.65;;;;;;;-144.05;74.31;57052.75;5094120;28;20024;-77
2024/01/27 02:34:24;;;;;;;13.90;5.20;;;;;;;-144.05;74.75;57056.97;5096833;28;20041;-78
2024/01/27 02:36:51;;;;;;;13.25;5.00;;;;;;;-144.05;75.13;57052.75;5113939;28;20106;-79
2024/01/27 02:39:17;;;;;;;21.88;5.50;;;;;;;-144.05;75.11;57054.88;5093681;28;20480;-78
2024/01/27 02:41:43;;;;;;;16.95;4.82;;;;;;;-144.05;74.31;57069.72;5092806;28;20028;-77
2024/01/27 02:44:09;;;;;;;26.30;4.95;;;;;;;-144.05;74.57;57029.38;5112136;28;20130;-76
2024/01/27 02:46:36;;;;;;;18.85;5.38;;;;;;;-144.05;74.37;57033.63;5110354;28;20024;-77
2024/01/27 02:49:02;;;;;;;19.98;5.25;;;;;;;-144.05;74.78;57044.25;5100659;28;20061;-78
2024/01/27 02:51:28;;;;;;;21.35;5.65;;;;;;;-144.05;74.63;57059.09;5095589;28;20142;-76
2024/01/27 02:53:54;;;;;;;18.30;5.22;;;;;;;-144.05;74.33;57014.50;5092334;28;20106;-76
2024/01/27 02:56:20;;;;;;;24.50;4.65;;;;;;;-144.05;74.87;57046.38;5094828;28;20043;-76
2024/01/27 02:58:47;;;;;;;16.65;6.55;;;;;;;-144.05;74.69;57073.97;5099262;28;20112;-77
2024/01/27 03:01:13;;;;;;;21.65;5.82;;;;;;;-144.05;74.39;57067.59;5114539;28;20039;-77
2024/01/27 03:03:39;;;;;;;22.08;5.90;;;;;;;-144.05;74.33;57012.38;5104102;28;20030;-78
2024/01/27 03:06:05;;;;;;;15.68;4.57;;;;;;;-144.05;73.84;57031.50;5109072;28;20028;-75
2024/01/27 03:08:31;;;;;;;14.40;5.25;;;;;;;-144.05;74.22;57082.47;5092830;28;20065;-76
2024/01/27 03:10:58;;;;;;;16.45;5.43;;;;;;;-144.05;74.22;57040.00;5098501;28;20470;-75
2024/01/27 03:13:24;;;;;;;17.00;4.97;;;;;;;-144.05;73.87;57012.38;5092710;28;20135;-74
2024/01/27 03:15:52;;;;;;;20.02;5.45;;;;;;;-144.05;73.80;57078.22;5109251;28;20050;-78
2024/01/27 03:18:18;;;;;;;22.15;6.13;;;;;;;-144.05;73.46;57061.22;5096858;28;20028;-76
2024/01/27 03:20:44;;;;;;;14.63;4.88;;;;;;;-144.05;74.08;57071.84;5091619;28;20077;-75
2024/01/27 03:23:10;;;;;;;23.05;5.78;;;;;;;-144.05;74.43;57054.88;5098380;28;20472;-78
2024/01/27 03:25:36;;;;;;;26.63;5.75;;;;;;;-144.05;74.47;57063.34;5092372;28;20028;-77
2024/01/27 03:28:03;;;;;;;22.77;4.97;;;;;;;-144.05;74.82;57052.75;5091598;28;20020;-77
2024/01/27 03:30:29;;;;;;;15.77;5.18;;;;;;;-144.05;75.63;57088.84;5094960;28;20365;-77
2024/01/27 03:32:55;;;;;;;15.85;6.25;;;;;;;-144.05;75.40;57031.50;5095372;28;20024;-76
2024/01/27 03:35:22;;;;;;;25.73;6.30;;;;;;;-144.05;75.74;57095.22;5091682;28;20055;-75
2024/01/27 03:37:49;;;;;;;22.23;6.07;;;;;;;-144.05;75.47;57042.13;5092723;28;20392;-76
2024/01/27 03:40:15;;;;;;;29.88;6.43;;;;;;;-144.05;75.42;57042.13;5095082;28;20435;-76
2024/01/27 03:42:41;;;;;;;26.88;6.32;;;;;;;-144.05;75.10;57048.50;5094821;28;20023;-78
2024/01/27 03:45:07;;;;;;;18.00;5.13;;;;;;;-144.05;74.66;57069.72;5127071;28;20024;-77
2024/01/27 03:47:34;;;;;;;19.40;4.78;;;;;;;-144.05;75.71;57073.97;5122606;28;20024;-78
2024/01/27 03:50:00;;;;;;;24.17;5.60;;;;;;;-144.05;75.42;57073.97;5126898;28;20028;-78
2024/01/27 03:52:26;;;;;;;25.85;5.68;;;;;;;-144.05;76.07;57069.72;5119755;28;20109;-76
2024/01/27 03:54:52;;;;;;;15.98;5.63;;;;;;;-144.05;75.55;57069.72;5110803;28;20085;-78
2024/01/27 03:57:19;;;;;;;28.30;5.88;;;;;;;-144.05;76.07;57086.72;5094091;28;20150;-77
2024/01/27 03:59:45;;;;;;;19.80;5.68;;;;;;;-144.05;76.70;57076.09;5096912;28;20058;-77
2024/01/27 04:02:11;;;;;;;17.92;5.63;;;;;;;-144.05;75.88;57054.88;5096439;28;20039;-76
2024/01/27 04:04:37;;;;;;;18.67;5.80;;;;;;;-144.05;75.50;57061.22;5095340;28;20096;-76
2024/01/27 04:07:04;;;;;;;22.30;6.82;;;;;;;-144.05;76.20;57056.97;5095752;28;20024;-77
2024/01/27 04:09:30;;;;;;;14.57;6.25;;;;;;;-144.05;75.12;57088.84;5095329;28;20032;-77
2024/01/27 04:11:56;;;;;;;19.42;6.95;;;;;;;-144.05;75.44;57056.97;5096738;28;20031;-77
2024/01/27 04:14:22;;;;;;;23.90;6.32;;;;;;;-144.05;75.53;57016.63;5096930;28;20400;-77
2024/01/27 04:16:49;;;;;;;19.25;6.22;;;;;;;-144.05;75.73;57086.72;5095983;28;20028;-74
2024/01/27 04:19:15;;;;;;;22.60;5.88;;;;;;;-144.05;76.27;57046.38;5097736;28;20472;-76
2024/01/27 04:21:42;;;;;;;17.45;5.93;;;;;;;-144.05;75.68;57031.50;5096633;28;20096;-76
2024/01/27 04:24:08;;;;;;;12.98;5.72;;;;;;;-144.05;75.13;57040.00;5096422;28;20499;-75
2024/01/27 04:26:35;;;;;;;14.02;5.70;;;;;;;-144.05;76.20;57090.97;5098998;28;20109;-77
2024/01/27 04:29:01;;;;;;;13.63;5.40;;;;;;;-144.05;75.85;57054.88;5102936;28;20058;-75
2024/01/27 04:31:27;;;;;;;22.38;6.05;;;;;;;-144.05;75.79;57065.47;5094877;28;20024;-77
2024/01/27 04:33:53;;;;;;;29.85;9.23;;;;;;;-144.05;75.72;57071.84;5109864;28;20028;-77
2024/01/27 04:36:29;;;;;;;21.95;6.75;;;2.60;99.90;;;-144.05;76.45;57054.88;5119332;28;20108;-75
2024/01/27 04:38:56;;;;;;;20.30;5.70;;;;;;;-144.05;76.30;57054.88;5095247;28;20027;-77
2024/01/27 04:41:22;;;;;;;23.77;6.05;;;;;;;-144.05;76.76;57052.75;5097339;28;20036;-76
2024/01/27 04:43:48;;;;;;;24.10;6.70;;;;;;;-144.05;75.50;57078.22;5102090;28;20015;-78
2024/01/27 04:46:15;;;;;;;18.08;5.63;;;;;;;-144.05;75.22;57088.84;5125206;28;20048;-78
2024/01/27 04:48:41;;;;;;;20.73;6.32;;;;;;;-144.05;76.01;57097.34;5097704;28;20485;-77
2024/01/27 04:51:07;;;;;;;19.67;6.60;;;;;;;-144.05;75.80;57069.72;5100671;28;20034;-77
2024/01/27 04:53:33;;;;;;;20.05;5.32;;;;;;;-144.05;74.98;57065.47;5102346;27;20039;-78
2024/01/27 04:55:59;;;;;;;23.85;6.45;;;;;;;-144.05;75.59;57018.75;5098945;28;20089;-77
2024/01/27 04:58:26;;;;;;;20.63;5.90;;;;;;;-144.05;75.35;57048.50;5095285;28;20025;-77
2024/01/27 05:00:52;;;;;;;20.17;5.75;;;;;;;-144.05;76.29;57063.34;5096428;28;20035;-79
2024/01/27 05:03:18;;;;;;;20.48;5.93;;;;;;;-144.05;75.50;57031.50;5096429;28;20023;-78
2024/01/27 05:05:44;;;;;;;19.17;6.45;;;;;;;-144.05;75.67;57078.22;5094388;28;20121;-78
2024/01/27 05:08:11;;;;;;;24.95;6.55;;;;;;;-144.05;76.24;57054.88;5110952;28;20091;-76
2024/01/27 05:10:37;;;;;;;25.85;6.45;;;;;;;-144.05;76.41;57042.13;5095796;28;20024;-76
2024/01/27 05:13:04;;;;;;;23.45;5.70;;;;;;;-144.05;75.94;57061.22;5095983;28;20527;-78
2024/01/27 05:15:30;;;;;;;27.63;6.38;;;;;;;-144.05;76.26;57048.50;5095686;28;20080;-79
2024/01/27 05:17:56;;;;;;;32.55;8.45;;;;;;;-144.05;75.71;57046.38;5095841;28;20393;-78
2024/01/27 05:20:22;;;;;;;20.20;6.22;;;;;;;-144.05;75.40;57076.09;5095080;28;20452;-78
2024/01/27 05:22:48;;;;;;;19.20;6.72;;;;;;;-144.05;75.95;57042.13;5095558;28;20035;-77
2024/01/27 05:25:16;;;;;;;13.30;6.22;;;;;;;-144.05;76.46;57071.84;5095289;28;20032;-77
2024/01/27 05:27:42;;;;;;;21.75;5.93;;;;;;;-144.05;75.75;57027.25;5094945;28;20414;-76
2024/01/27 05:30:10;;;;;;;24.90;6.18;;;;;;;-144.05;76.52;57059.09;5094639;28;20024;-77
2024/01/27 05:32:36;;;;;;;17.17;6.13;;;;;;;-144.05;76.56;57048.50;5093711;28;20032;-78
2024/01/27 05:35:03;;;;;;;19.67;6.40;;;;;;;-144.05;76.74;57080.34;5093980;28;20111;-78
2024/01/27 05:37:29;;;;;;;18.15;5.90;;;;;;;-144.05;76.34;57056.97;5098613;28;20120;-77
2024/01/27 05:39:56;;;;;;;20.85;6.03;;;;;;;-144.05;76.29;57076.09;5094496;28;20028;-76
2024/01/27 05:42:22;;;;;;;20.88;6.80;;;;;;;-144.05;76.29;57071.84;5094842;28;20103;-76
2024/01/27 05:44:48;;;;;;;15.57;7.35;;;;;;;-144.05;76.25;57029.38;5093869;28;20035;-78
2024/01/27 05:47:15;;;;;;;21.67;6.50;;;;;;;-144.05;77.15;57040.00;5095346;28;20059;-76
2024/01/27 05:49:41;;;;;;;21.38;7.60;;;;;;;-144.05;78.50;57063.34;5094878;28;20024;-78
2024/01/27 05:52:08;;;;;;;25.23;7.72;;;;;;;-144.05;78.48;57088.84;5094881;28;20561;-78
2024/01/27 05:54:34;;;;;;;28.70;7.22;;;;;;;-144.05;77.44;57097.34;5093240;28;20028;-76
2024/01/27 05:57:00;;;;;;;22.95;7.53;;;;;;;-144.05;77.52;57059.09;5094876;28;20020;-77
2024/01/27 05:59:27;;;;;;;22.40;7.05;;;;;;;-144.05;76.79;57050.63;5096848;28;20024;-77
2024/01/27 06:01:53;;;;;;;17.77;7.72;;;;;;;-144.05;76.96;57093.09;5094381;28;20052;-77
2024/01/27 06:04:19;;;;;;;26.98;6.78;;;;;;;-144.05;76.95;57107.97;5102602;28;20556;-76
2024/01/27 06:06:46;;;;;;;30.50;7.50;;;;;;;-144.05;77.41;57065.47;5106179;28;20035;-78
2024/01/27 06:09:13;;;;;;;31.73;9.15;;;;;;;-144.05;78.32;57084.59;5105566;28;20024;-78
2024/01/27 06:11:40;;;;;;;25.50;6.95;;;;;;;-144.05;77.25;57059.09;5095063;28;20030;-78
2024/01/27 06:14:06;;;;;;;19.38;6.90;;;;;;;-144.05;77.16;57076.09;5095100;28;20020;-79
2024/01/27 06:16:34;;;;;;;24.23;7.78;;;;;;;-144.05;77.24;57082.47;5102141;28;20488;-79
2024/01/27 06:19:01;;;;;;;23.98;8.05;;;;;;;-144.05;77.35;57054.88;5098671;28;20022;-79
2024/01/27 06:21:27;;;;;;;26.40;7.13;;;;;;;-144.05;78.44;57069.72;5100578;28;20060;-78
2024/01/27 06:23:53;;;;;;;26.33;8.93;;;;;;;-144.05;78.31;57071.84;5103936;28;20042;-79
2024/01/27 06:26:21;;;;;;;24.17;8.27;;;;;;;-144.05;78.41;57050.63;5096683;28;20035;-75
2024/01/27 06:28:47;;;;;;;22.10;7.97;;;;;;;-144.05;78.77;57061.22;5098080;28;20016;-77
2024/01/27 06:31:15;;;;;;;26.55;7.88;;;;;;;-144.05;78.11;57076.09;5106498;28;20099;-75
2024/01/27 06:33:42;;;;;;;21.67;7.47;;;;;;;-144.05;78.01;57073.97;5115817;28;20028;-77
2024/01/27 06:36:09;;;;;;;20.42;7.03;;;;;;;-144.05;77.75;57050.63;5094242;28;20023;-77
2024/01/27 06:38:38;;;;;;;27.52;7.72;;;;;;;-144.05;78.25;57048.50;5102789;28;20024;-76
2024/01/27 06:41:04;;;;;;;26.73;7.13;;;;;;;-144.05;78.88;57050.63;5095021;28;20035;-74
2024/01/27 06:43:31;;;;;;;21.45;7.50;;;;;;;-144.05;78.37;57033.63;5093011;28;20028;-77
2024/01/27 06:45:57;;;;;;;18.58;7.35;;;;;;;-144.05;78.23;57063.34;5095066;28;20384;-76
2024/01/27 06:48:26;;;;;;;25.10;7.43;;;;;;;-144.05;77.81;57056.97;5094949;28;20024;-77
2024/01/27 06:50:53;;;;;;;22.65;7.18;;;;;;;-144.05;77.26;57046.38;5103841;28;20023;-79
2024/01/27 06:53:20;;;;;;;22.02;7.22;;;;;;;-144.05;77.16;57093.09;5099684;28;20431;-78
2024/01/27 06:55:47;;;;;;;22.90;8.27;;;;;;;-144.05;77.55;57076.09;5095580;28;20107;-77
2024/01/27 06:58:13;;;;;;;24.65;6.53;;;;;;;-144.05;76.97;57042.13;5095877;28;20291;-78
2024/01/27 07:00:40;;;;;;;22.60;7.28;;;;;;;-144.05;76.85;57069.72;5094438;28;20485;-77
2024/01/27 07:03:06;;;;;;;22.75;6.30;;;;;;;-144.05;76.57;57063.34;5094960;28;20035;-79
2024/01/27 07:05:38;;;;;;;22.52;6.30;;;;;;;-144.05;76.40;57088.84;5094301;28;20119;-76
2024/01/27 07:08:08;;;;;;;21.90;7.32;;;;;;;-144.05;76.74;57078.22;5103631;28;20042;-77
2024/01/27 07:10:35;;;;;;;23.58;6.72;;;2.00;99.90;;;-144.05;76.64;57076.09;5113235;28;20084;-76
2024/01/27 07:13:02;;;;;;;23.10;6.22;;;;;;;-144.05;76.72;57082.47;5097800;28;20109;-76
2024/01/27 07:15:28;;;;;;;28.77;6.25;;;;;;;-144.05;76.63;57054.88;5096873;28;20519;-77
2024/01/27 07:17:54;;;;;;;21.13;6.47;;;2.40;99.90;;;-144.05;76.75;57093.09;5097312;28;20077;-77
2024/01/27 07:20:23;;;;;;;25.05;6.35;;;;;;;-144.05;76.34;57044.25;5093329;28;20105;-77
2024/01/27 07:22:49;;;;;;;14.48;6.93;;;;;;;-144.05;75.97;57080.34;5103816;28;20103;-76
2024/01/27 07:25:16;;;;;;;28.13;7.85;;;;;;;-144.05;76.61;57069.72;5111899;28;20083;-76
2024/01/27 07:27:42;;;;;;;20.95;6.10;;;;;;;-144.05;76.29;57052.75;5110002;28;20030;-75
2024/01/27 07:30:09;;;;;;;16.50;6.80;;;;;;;-144.05;76.64;57093.09;5103884;28;20084;-77
2024/01/27 07:32:35;;;;;;;25.45;6.07;;;;;;;-144.05;76.12;57048.50;5096633;28;20028;-76
2024/01/27 07:35:02;;;;;;;17.17;5.32;;;2.70;99.90;;;-144.05;75.78;57050.63;5097363;28;20080;-79
2024/01/27 07:37:28;;;;;;;24.38;6.10;;;;;;;-144.05;75.60;57067.59;5100830;28;20024;-76
2024/01/27 07:39:54;;;;;;;18.00;5.28;;;;;;;-144.05;75.42;57063.34;5103795;28;20042;-78
2024/01/27 07:42:21;;;;;;;18.85;5.95;;;;;;;-144.05;74.74;57059.09;5108850;28;20042;-77
2024/01/27 07:44:47;;;;;;;19.63;5.40;;;;;;;-144.05;74.80;57059.09;5115854;28;20043;-77
2024/01/27 07:47:13;;;;;;;21.48;5.18;;;;;;;-144.05;74.42;57056.97;5101283;28;20388;-77
2024/01/27 07:49:39;;;;;;;18.85;5.30;;;;;;;-144.05;74.65;57031.50;5103613;27;20020;-77
2024/01/27 07:52:06;;;;;;;23.25;5.75;;;;;;;-144.05;74.21;57040.00;5099700;28;20647;-77
2024/01/27 07:54:32;;;;;;;20.17;5.38;;;;;;;-144.05;74.01;57048.50;5102530;28;20058;-76
2024/01/27 07:56:59;;;;;;;17.45;4.93;;;3.10;99.90;;;-144.05;74.26;57056.97;5099234;28;20058;-76
2024/01/27 07:59:25;;;;;;;23.30;5.32;;;;;;;-144.05;73.42;57050.63;5098155;28;20119;-76
2024/01/27 08:01:52;;;;;;;20.35;6.53;;;;;;;-144.05;72.95;57044.25;5096218;28;20125;-76
2024/01/27 08:04:18;;;;;;;21.70;5.50;;;;;;;-144.05;72.45;57082.47;5098118;28;20032;-76
2024/01/27 08:06:50;;;;;;;24.52;5.40;;;3.30;99.90;;;-144.05;71.75;57076.09;5097758;28;20047;-77
2024/01/27 08:09:17;;;;;;;13.43;5.40;;;;;;;-144.05;71.54;57065.47;5101375;28;20031;-77
2024/01/27 08:11:44;;;;;;;24.15;6.30;;;;;;;-144.05;70.47;57035.75;5109341;28;20024;-78
2024/01/27 08:14:10;;;;;;;19.88;5.75;;;;;;;-144.05;70.43;57018.75;5098210;28;20027;-78
2024/01/27 08:16:37;;;;;;;17.75;5.25;;;;;;;-144.05;70.15;57035.75;5104647;28;20392;-77
2024/01/27 08:19:03;;;;;;;16.88;4.80;;;;;;;-144.05;69.82;57040.00;5111581;28;20024;-78
2024/01/27 08:21:29;;;;;;;18.02;5.18;;;;;;;-144.05;69.99;57012.38;5096858;28;20381;-78
2024/01/27 08:23:55;;;;;;;15.57;5.10;;;;;;;-144.05;69.13;57031.50;5102793;28;20077;-76
2024/01/27 08:26:22;;;;;;;17.40;5.18;;;;;;;-144.05;68.82;57003.88;5098497;28;20370;-78
2024/01/27 08:28:48;;;;;;;17.20;4.80;;;;;;;-144.05;68.37;57061.22;5098178;28;20024;-78
2024/01/27 08:31:15;;;;;;;11.25;4.65;;;;;;;-144.05;67.67;57046.38;5098333;28;20028;-78
2024/01/27 08:33:41;;;;;;;21.75;4.97;;;;;;;-144.05;67.78;57025.13;5098268;28;20388;-75
2024/01/27 08:36:07;;;;;;;15.82;4.95;;;;;;;-144.05;67.07;57001.75;5096979;28;20426;-77
2024/01/27 08:38:33;;;;;;;15.90;4.88;;;;;;;-144.05;66.93;57018.75;5096817;28;20059;-77
2024/01/27 08:41:00;;;;;;;14.32;5.80;;;;;;;-144.05;66.73;57027.25;5096938;28;20057;-78
2024/01/27 08:43:26;;;;;;;19.95;5.03;;;;;;;-144.05;66.44;57048.50;5096174;28;20032;-77
2024/01/27 08:45:54;;;;;;;21.13;5.35;;;;;;;-144.05;66.97;57020.88;5097163;28;20039;-77
2024/01/27 08:48:20;;;;;;;18.58;4.68;;;;;;;-144.05;66.76;57023.00;5095935;28;20020;-77
2024/01/27 08:50:47;;;;;;;13.73;4.85;;;;;;;-144.05;66.56;57018.75;5103121;28;20458;-78
2024/01/27 08:53:13;;;;;;;14.40;5.18;;;;;;;-144.05;66.72;57020.88;5099686;28;20032;-77
2024/01/27 08:55:39;;;;;;;18.48;5.13;;;;;;;-144.05;66.86;57025.13;5096321;28;20031;-80
2024/01/27 08:58:05;;;;;;;13.60;4.93;;;;;;;-144.05;66.11;57033.63;5095541;28;20020;-75
2024/01/27 09:00:31;;;;;;;16.63;5.25;;;;;;;-144.05;65.53;57020.88;5096228;28;20032;-77
2024/01/27 09:02:58;;;;;;;17.75;5.15;;;;;;;-144.05;64.87;57014.50;5095726;28;20111;-77
2024/01/27 09:05:24;;;;;;;17.38;4.15;;;;;;;-144.05;63.67;57006.00;5095859;28;20043;-75
2024/01/27 09:07:50;;;;;;;16.42;4.30;;;;;;;-144.05;64.42;57018.75;5096593;28;20485;-78
2024/01/27 09:10:17;;;;;;;19.08;4.47;;;;;;;-144.05;63.62;57027.25;5096777;28;20058;-78
2024/01/27 09:12:43;;;;;;;25.33;5.68;;;;;;;-144.05;63.57;57001.75;5096437;28;20539;-77
2024/01/27 09:15:10;;;;;;;18.88;4.68;;;;;;;-144.05;63.45;56986.91;5095106;28;20129;-79
2024/01/27 09:17:36;;;;;;;12.95;4.40;;;;;;;-144.05;64.09;57046.38;5095523;28;20028;-78
2024/01/27 09:20:03;;;;;;;14.38;4.85;;;;;;;-144.05;64.60;57035.75;5094816;28;20016;-79
2024/01/27 09:22:29;;;;;;;20.23;4.20;;;;;;;-144.05;63.21;57023.00;5093960;28;20081;-80
2024/01/27 09:24:56;;;;;;;17.48;5.10;;;;;;;-144.05;63.43;57025.13;5102959;28;20024;-77
2024/01/27 09:27:22;;;;;;;17.33;4.60;;;;;;;-144.05;63.86;57012.38;5105409;28;20404;-79
2024/01/27 09:29:48;;;;;;;16.90;3.97;;;;;;;-144.05;62.85;57023.00;5104351;28;20031;-76
2024/01/27 09:32:14;;;;;;;15.95;4.78;;;;;;;-144.05;61.85;56989.00;5104350;28;20179;-75
2024/01/27 09:34:40;;;;;;;18.83;4.10;;;;;;;-144.05;60.77;57016.63;5102410;28;20031;-78
2024/01/27 09:37:06;;;;;;;18.15;5.22;;;;;;;-144.05;61.15;57001.75;5100417;28;20048;-76
2024/01/27 09:39:33;;;;;;;22.60;4.43;;;;;;;-144.05;61.03;56969.91;5094874;28;20024;-77
2024/01/27 09:42:06;;;;;;;14.40;4.50;;;6.50;99.90;;;-144.05;60.60;56995.38;5095156;28;20445;-77
2024/01/27 09:44:35;;;;;;;13.32;4.05;;;6.70;99.90;;;-144.05;60.12;57027.25;5099141;28;20055;-76
2024/01/27 09:47:03;;;;;;;18.75;4.85;;;3.50;99.90;;;-144.05;59.29;56993.25;5114342;28;20024;-75
2024/01/27 09:49:31;;;;;;;22.88;4.85;;;6.40;99.90;;;-144.05;58.94;56961.41;5105870;28;20078;-76
2024/01/27 09:51:57;;;;;;;17.98;4.88;;;6.50;99.90;;;-144.05;59.02;56993.25;5100045;28;20485;-76
2024/01/27 09:54:23;;;;;;;15.50;3.92;;;6.70;99.90;;;-144.05;58.94;56969.91;5096053;28;20038;-76
2024/01/27 09:56:51;;;;;;;14.27;4.88;;;6.80;99.90;;;-144.05;59.45;56993.25;5096225;28;20389;-77
2024/01/27 09:59:20;;;;;;;17.10;4.95;;;6.90;99.90;;;-144.05;59.57;57016.63;5096635;28;20092;-78
2024/01/27 10:01:48;;;;;;;18.20;4.40;;;;;;;-144.05;58.27;56976.28;5105419;28;20015;-74
2024/01/27 10:04:15;;;;;;;21.23;5.53;;;6.70;99.90;;;-144.05;58.97;56991.13;5120789;28;20046;-81
2024/01/27 10:06:44;;;;;;;22.10;4.10;;;7.40;99.90;;;-144.05;58.39;56972.03;5095666;28;20031;-78
2024/01/27 10:09:10;;;;;;;14.82;5.03;;;6.60;99.90;;;-144.05;58.53;57001.75;5095613;28;20016;-78
2024/01/27 10:11:45;;;;;;;20.15;4.28;;;7.10;99.90;;;-144.05;58.53;57008.13;5096218;28;20126;-79
2024/01/27 10:14:11;;;;;;;17.80;4.73;;;6.20;99.90;;;-144.05;57.59;56997.50;5098726;28;20031;-76
2024/01/27 10:16:45;;;;;;;15.40;4.05;;;7.40;99.90;;;-144.05;57.18;56984.78;5120755;28;20337;-77
2024/01/27 10:19:21;;;;;;;13.50;4.75;;;7.30;99.90;;;-144.05;58.00;57012.38;5116936;28;20032;-80
2024/01/27 10:21:48;;;;;;;20.10;4.57;;;;;;;-144.05;57.99;57014.50;5100405;28;20020;-77
2024/01/27 10:24:14;;;;;;;15.70;5.38;;;6.40;99.90;;;-144.05;57.86;56997.50;5096759;28;20028;-79
2024/01/27 10:26:41;;;;;;;19.90;4.68;;;7.40;99.90;;;-144.05;56.11;56978.41;5096827;28;20031;-83
2024/01/27 10:29:08;;;;;;;11.40;3.78;;;6.80;99.90;;;-144.05;57.00;56991.13;5096372;28;20016;-79
2024/01/27 10:31:36;;;;;;;15.65;4.05;;;7.50;99.90;;;-144.05;56.91;56980.53;5096311;28;20055;-78
2024/01/27 10:34:04;;;;;;;13.88;4.35;;;8.60;99.90;;;-144.05;57.26;56999.63;5095111;28;20077;-76
2024/01/27 10:36:44;;;;;;;16.02;4.43;;;7.60;99.90;;;-144.05;59.16;56995.38;5097114;28;20020;-78
2024/01/27 10:39:36;;;;;;;13.52;4.00;;;6.60;99.90;;;-144.05;57.31;56997.50;5095680;28;20050;-78
2024/01/27 10:42:04;;;;;;;14.93;4.20;;;7.60;99.90;;;-144.05;56.91;56980.53;5092781;28;20032;-76
2024/01/27 10:44:33;;;;;;;18.40;3.80;;;7.80;99.90;;;-144.05;56.88;56974.16;5094747;28;20032;-76
2024/01/27 10:47:04;;;;;;;18.13;5.15;;;7.80;99.90;;;-144.05;56.59;57001.75;5096667;28;20117;-75
2024/01/27 10:49:41;;;;;;;16.83;4.38;;;6.70;99.90;;;-144.05;57.06;56963.53;5096166;28;20511;-75
2024/01/27 10:52:18;;;;;;;20.83;4.05;;;7.80;99.90;;;-144.05;55.71;56984.78;5096665;28;20081;-78
2024/01/27 10:54:46;;;;;;;12.18;3.47;;;7.70;99.90;;;-144.05;56.42;57012.38;5107012;28;20035;-75
2024/01/27 10:57:13;;;;;;;21.05;4.25;;;;;;;-144.05;55.96;56991.13;5099758;28;20031;-78